sensor_id;sensor_type;location;lat;lon;timestamp;pressure;altitude;pressure_sealevel;temperature;humidity
64292;BME280;50628;51.008;13.658;2022-12-16T00:01:41;98986.22;;;-4.70;100.00
64292;BME280;50628;51.008;13.658;2022-12-16T00:06:43;98984.47;;;-4.68;100.00
64292;BME280;50628;51.008;13.658;2022-12-16T00:11:46;98979.25;;;-4.63;100.00
64292;BME280;50628;51.008;13.658;2022-12-16T00:16:48;98972.19;;;-4.53;100.00
64292;BME280;50628;51.008;13.658;2022-12-16T00:21:50;98974.31;;;-4.41;100.00
64292;BME280;50628;51.008;13.658;2022-12-16T00:26:53;98974.97;;;-4.35;100.00
64292;BME280;50628;51.008;13.658;2022-12-16T00:31:55;98975.88;;;-4.37;100.00
64292;BME280;50628;51.008;13.658;2022-12-16T00:36:57;98977.59;;;-4.38;100.00
64292;BME280;50628;51.008;13.658;2022-12-16T00:42:00;98983.56;;;-4.65;100.00
64292;BME280;50628;51.008;13.658;2022-12-16T00:47:02;98973.97;;;-4.57;100.00
64292;BME280;50628;51.008;13.658;2022-12-16T00:52:04;98980.44;;;-4.47;100.00
64292;BME280;50628;51.008;13.658;2022-12-16T00:57:07;98981.19;;;-4.43;100.00
64292;BME280;50628;51.008;13.658;2022-12-16T01:02:09;98966.97;;;-4.24;100.00
64292;BME280;50628;51.008;13.658;2022-12-16T01:07:11;98973.69;;;-4.48;100.00
64292;BME280;50628;51.008;13.658;2022-12-16T01:12:14;98974.38;;;-4.43;100.00
64292;BME280;50628;51.008;13.658;2022-12-16T01:17:16;98987.41;;;-4.27;100.00
64292;BME280;50628;51.008;13.658;2022-12-16T01:22:19;98986.91;;;-4.11;100.00
64292;BME280;50628;51.008;13.658;2022-12-16T01:27:22;98983.97;;;-4.51;100.00
64292;BME280;50628;51.008;13.658;2022-12-16T01:32:24;98975.84;;;-4.36;100.00
64292;BME280;50628;51.008;13.658;2022-12-16T01:37:26;98978.81;;;-4.23;100.00
64292;BME280;50628;51.008;13.658;2022-12-16T01:42:29;98974.31;;;-4.15;100.00
64292;BME280;50628;51.008;13.658;2022-12-16T01:47:33;98969.53;;;-3.99;100.00
64292;BME280;50628;51.008;13.658;2022-12-16T01:52:36;98974.28;;;-3.88;100.00
64292;BME280;50628;51.008;13.658;2022-12-16T01:57:45;98956.22;;;-4.05;100.00
64292;BME280;50628;51.008;13.658;2022-12-16T02:02:50;98956.50;;;-4.13;100.00
64292;BME280;50628;51.008;13.658;2022-12-16T02:07:57;98959.44;;;-4.00;100.00
64292;BME280;50628;51.008;13.658;2022-12-16T02:13:07;98952.78;;;-4.04;100.00
64292;BME280;50628;51.008;13.658;2022-12-16T02:18:19;98951.41;;;-3.88;100.00
64292;BME280;50628;51.008;13.658;2022-12-16T02:29:36;98947.03;;;-3.84;100.00
64292;BME280;50628;51.008;13.658;2022-12-16T02:34:51;98943.25;;;-3.98;100.00
64292;BME280;50628;51.008;13.658;2022-12-16T02:39:59;98938.97;;;-3.72;100.00
64292;BME280;50628;51.008;13.658;2022-12-16T02:45:05;98930.72;;;-3.79;100.00
64292;BME280;50628;51.008;13.658;2022-12-16T02:50:17;98931.06;;;-3.88;100.00
64292;BME280;50628;51.008;13.658;2022-12-16T02:55:19;98924.19;;;-3.86;100.00
64292;BME280;50628;51.008;13.658;2022-12-16T03:00:23;98914.41;;;-3.97;100.00
64292;BME280;50628;51.008;13.658;2022-12-16T03:05:29;98916.69;;;-4.14;100.00
64292;BME280;50628;51.008;13.658;2022-12-16T03:10:36;98917.31;;;-4.07;100.00
64292;BME280;50628;51.008;13.658;2022-12-16T03:15:40;98909.06;;;-3.89;100.00
64292;BME280;50628;51.008;13.658;2022-12-16T03:20:48;98902.63;;;-3.76;100.00
64292;BME280;50628;51.008;13.658;2022-12-16T03:25:54;98898.34;;;-3.74;100.00
64292;BME280;50628;51.008;13.658;2022-12-16T03:31:00;98907.25;;;-3.85;100.00
64292;BME280;50628;51.008;13.658;2022-12-16T03:36:09;98901.94;;;-3.79;100.00
64292;BME280;50628;51.008;13.658;2022-12-16T03:41:14;98902.63;;;-3.76;100.00
64292;BME280;50628;51.008;13.658;2022-12-16T03:46:17;98906.91;;;-3.53;100.00
64292;BME280;50628;51.008;13.658;2022-12-16T03:51:20;98908.19;;;-3.64;100.00
64292;BME280;50628;51.008;13.658;2022-12-16T03:56:22;98909.25;;;-3.70;100.00
64292;BME280;50628;51.008;13.658;2022-12-16T04:01:24;98914.13;;;-3.65;100.00
64292;BME280;50628;51.008;13.658;2022-12-16T04:06:28;98910.41;;;-3.55;100.00
64292;BME280;50628;51.008;13.658;2022-12-16T04:11:30;98923.88;;;-3.53;100.00
64292;BME280;50628;51.008;13.658;2022-12-16T04:16:49;98917.69;;;-3.46;100.00
64292;BME280;50628;51.008;13.658;2022-12-16T04:22:12;98918.59;;;-3.47;100.00
64292;BME280;50628;51.008;13.658;2022-12-16T04:27:47;98931.22;;;-3.45;100.00
64292;BME280;50628;51.008;13.658;2022-12-16T04:32:51;98926.97;;;-3.68;100.00
64292;BME280;50628;51.008;13.658;2022-12-16T04:38:12;98941.75;;;-3.55;100.00
64292;BME280;50628;51.008;13.658;2022-12-16T04:43:31;98939.41;;;-3.61;100.00
64292;BME280;50628;51.008;13.658;2022-12-16T04:48:53;98936.72;;;-3.56;100.00
64292;BME280;50628;51.008;13.658;2022-12-16T04:54:13;98942.41;;;-3.50;100.00
64292;BME280;50628;51.008;13.658;2022-12-16T04:59:32;98947.50;;;-3.50;100.00
64292;BME280;50628;51.008;13.658;2022-12-16T05:04:51;98969.06;;;-3.36;100.00
64292;BME280;50628;51.008;13.658;2022-12-16T05:10:27;98970.16;;;-3.43;100.00
64292;BME280;50628;51.008;13.658;2022-12-16T05:15:46;98973.09;;;-3.54;100.00
64292;BME280;50628;51.008;13.658;2022-12-16T05:21:06;98991.31;;;-3.41;100.00
64292;BME280;50628;51.008;13.658;2022-12-16T05:26:27;98980.47;;;-3.46;100.00
64292;BME280;50628;51.008;13.658;2022-12-16T05:31:46;98974.00;;;-3.55;100.00
64292;BME280;50628;51.008;13.658;2022-12-16T05:37:06;98975.59;;;-3.53;100.00
64292;BME280;50628;51.008;13.658;2022-12-16T05:42:26;98979.75;;;-3.50;100.00
64292;BME280;50628;51.008;13.658;2022-12-16T05:47:46;98971.44;;;-3.32;100.00
64292;BME280;50628;51.008;13.658;2022-12-16T05:53:06;98969.28;;;-3.19;100.00
64292;BME280;50628;51.008;13.658;2022-12-16T05:58:27;98989.16;;;-3.29;100.00
64292;BME280;50628;51.008;13.658;2022-12-16T06:03:47;98982.69;;;-3.37;100.00
64292;BME280;50628;51.008;13.658;2022-12-16T06:09:07;98999.56;;;-3.35;100.00
64292;BME280;50628;51.008;13.658;2022-12-16T06:14:27;99001.47;;;-3.18;100.00
64292;BME280;50628;51.008;13.658;2022-12-16T06:19:47;99009.38;;;-3.26;100.00
64292;BME280;50628;51.008;13.658;2022-12-16T06:25:07;99013.00;;;-3.31;100.00
64292;BME280;50628;51.008;13.658;2022-12-16T06:30:27;99030.47;;;-3.22;100.00
64292;BME280;50628;51.008;13.658;2022-12-16T06:35:47;99025.31;;;-3.44;100.00
64292;BME280;50628;51.008;13.658;2022-12-16T06:41:06;99030.41;;;-3.69;100.00
64292;BME280;50628;51.008;13.658;2022-12-16T06:46:27;99037.84;;;-3.88;100.00
64292;BME280;50628;51.008;13.658;2022-12-16T06:51:46;99047.13;;;-3.62;100.00
64292;BME280;50628;51.008;13.658;2022-12-16T06:57:06;99064.31;;;-3.43;100.00
64292;BME280;50628;51.008;13.658;2022-12-16T07:02:27;99069.13;;;-3.36;100.00
64292;BME280;50628;51.008;13.658;2022-12-16T07:07:51;99082.19;;;-3.45;100.00
64292;BME280;50628;51.008;13.658;2022-12-16T07:13:11;99080.88;;;-3.32;100.00
64292;BME280;50628;51.008;13.658;2022-12-16T07:18:32;99087.53;;;-3.28;100.00
64292;BME280;50628;51.008;13.658;2022-12-16T07:23:51;99104.19;;;-3.19;100.00
64292;BME280;50628;51.008;13.658;2022-12-16T07:29:11;99110.91;;;-3.18;100.00
64292;BME280;50628;51.008;13.658;2022-12-16T07:34:32;99125.22;;;-3.14;100.00
64292;BME280;50628;51.008;13.658;2022-12-16T07:39:51;99131.94;;;-3.13;100.00
64292;BME280;50628;51.008;13.658;2022-12-16T07:45:10;99141.97;;;-3.08;100.00
64292;BME280;50628;51.008;13.658;2022-12-16T07:50:37;99143.81;;;-3.12;100.00
64292;BME280;50628;51.008;13.658;2022-12-16T07:55:56;99140.09;;;-3.03;100.00
64292;BME280;50628;51.008;13.658;2022-12-16T08:01:16;99144.06;;;-3.19;100.00
64292;BME280;50628;51.008;13.658;2022-12-16T08:06:37;99144.78;;;-3.16;100.00
64292;BME280;50628;51.008;13.658;2022-12-16T08:11:57;99150.22;;;-3.25;100.00
64292;BME280;50628;51.008;13.658;2022-12-16T08:17:28;99155.91;;;-3.18;100.00
64292;BME280;50628;51.008;13.658;2022-12-16T08:22:49;99153.91;;;-3.10;100.00
64292;BME280;50628;51.008;13.658;2022-12-16T08:28:08;99166.75;;;-3.13;100.00
64292;BME280;50628;51.008;13.658;2022-12-16T08:33:27;99173.09;;;-3.00;100.00
64292;BME280;50628;51.008;13.658;2022-12-16T08:38:49;99176.50;;;-2.99;100.00
64292;BME280;50628;51.008;13.658;2022-12-16T08:44:08;99181.88;;;-3.09;100.00
64292;BME280;50628;51.008;13.658;2022-12-16T08:49:27;99189.97;;;-2.97;100.00
64292;BME280;50628;51.008;13.658;2022-12-16T08:54:48;99185.06;;;-3.02;100.00
64292;BME280;50628;51.008;13.658;2022-12-16T09:00:08;99200.34;;;-2.77;100.00
64292;BME280;50628;51.008;13.658;2022-12-16T09:05:27;99210.25;;;-2.94;100.00
64292;BME280;50628;51.008;13.658;2022-12-16T09:10:59;99211.00;;;-2.67;100.00
64292;BME280;50628;51.008;13.658;2022-12-16T09:16:18;99216.84;;;-3.14;100.00
64292;BME280;50628;51.008;13.658;2022-12-16T09:21:37;99220.28;;;-3.41;100.00
64292;BME280;50628;51.008;13.658;2022-12-16T09:26:58;99235.00;;;-3.78;100.00
64292;BME280;50628;51.008;13.658;2022-12-16T09:32:18;99238.16;;;-3.71;100.00
64292;BME280;50628;51.008;13.658;2022-12-16T09:37:37;99244.50;;;-3.56;100.00
64292;BME280;50628;51.008;13.658;2022-12-16T09:43:07;99258.66;;;-3.21;100.00
64292;BME280;50628;51.008;13.658;2022-12-16T09:48:37;99255.94;;;-2.90;100.00
64292;BME280;50628;51.008;13.658;2022-12-16T09:53:59;99262.44;;;-2.81;100.00
64292;BME280;50628;51.008;13.658;2022-12-16T09:59:24;99263.22;;;-2.54;100.00
64292;BME280;50628;51.008;13.658;2022-12-16T10:04:50;99262.88;;;-3.20;100.00
64292;BME280;50628;51.008;13.658;2022-12-16T10:10:17;99272.81;;;-3.12;100.00
64292;BME280;50628;51.008;13.658;2022-12-16T10:15:46;99274.59;;;-2.64;100.00
64292;BME280;50628;51.008;13.658;2022-12-16T10:21:10;99274.13;;;-2.50;100.00
64292;BME280;50628;51.008;13.658;2022-12-16T10:26:42;99268.00;;;-2.21;100.00
64292;BME280;50628;51.008;13.658;2022-12-16T10:32:15;99271.00;;;-2.10;100.00
64292;BME280;50628;51.008;13.658;2022-12-16T10:37:38;99276.88;;;-2.31;100.00
64292;BME280;50628;51.008;13.658;2022-12-16T10:43:01;99284.28;;;-2.49;100.00
64292;BME280;50628;51.008;13.658;2022-12-16T10:48:26;99285.50;;;-2.35;100.00
64292;BME280;50628;51.008;13.658;2022-12-16T10:53:45;99282.44;;;-2.45;100.00
64292;BME280;50628;51.008;13.658;2022-12-16T10:59:08;99282.13;;;-2.36;100.00
64292;BME280;50628;51.008;13.658;2022-12-16T11:04:31;99284.81;;;-2.41;100.00
64292;BME280;50628;51.008;13.658;2022-12-16T11:09:50;99293.47;;;-2.70;100.00
64292;BME280;50628;51.008;13.658;2022-12-16T11:15:26;99293.84;;;-2.55;100.00
64292;BME280;50628;51.008;13.658;2022-12-16T11:21:03;99293.25;;;-2.38;100.00
64292;BME280;50628;51.008;13.658;2022-12-16T11:26:23;99297.34;;;-2.34;100.00
64292;BME280;50628;51.008;13.658;2022-12-16T11:31:42;99305.19;;;-2.15;100.00
64292;BME280;50628;51.008;13.658;2022-12-16T11:37:03;99302.38;;;-2.31;100.00
64292;BME280;50628;51.008;13.658;2022-12-16T11:42:37;99308.34;;;-2.57;100.00
64292;BME280;50628;51.008;13.658;2022-12-16T11:48:02;99328.03;;;-2.63;100.00
64292;BME280;50628;51.008;13.658;2022-12-16T11:53:31;99326.94;;;-2.80;100.00
64292;BME280;50628;51.008;13.658;2022-12-16T11:58:51;99326.78;;;-3.02;100.00
64292;BME280;50628;51.008;13.658;2022-12-16T12:04:14;99341.78;;;-3.20;100.00
64292;BME280;50628;51.008;13.658;2022-12-16T12:09:37;99341.69;;;-3.17;100.00
64292;BME280;50628;51.008;13.658;2022-12-16T12:15:05;99340.69;;;-3.13;100.00
64292;BME280;50628;51.008;13.658;2022-12-16T12:20:41;99343.47;;;-3.20;100.00
64292;BME280;50628;51.008;13.658;2022-12-16T12:26:13;99352.56;;;-3.12;100.00
64292;BME280;50628;51.008;13.658;2022-12-16T12:31:42;99351.56;;;-3.36;100.00
64292;BME280;50628;51.008;13.658;2022-12-16T12:37:05;99357.13;;;-3.51;100.00
64292;BME280;50628;51.008;13.658;2022-12-16T12:42:33;99363.66;;;-3.42;100.00
64292;BME280;50628;51.008;13.658;2022-12-16T12:48:01;99363.97;;;-3.53;100.00
64292;BME280;50628;51.008;13.658;2022-12-16T12:53:33;99371.31;;;-3.74;100.00
64292;BME280;50628;51.008;13.658;2022-12-16T12:59:02;99369.19;;;-3.58;100.00
64292;BME280;50628;51.008;13.658;2022-12-16T13:04:24;99376.50;;;-3.47;100.00
64292;BME280;50628;51.008;13.658;2022-12-16T13:10:14;99393.50;;;-3.47;100.00
64292;BME280;50628;51.008;13.658;2022-12-16T13:15:45;99410.97;;;-3.66;100.00
64292;BME280;50628;51.008;13.658;2022-12-16T13:21:45;99412.66;;;-3.97;100.00
64292;BME280;50628;51.008;13.658;2022-12-16T13:27:12;99416.66;;;-3.88;100.00
64292;BME280;50628;51.008;13.658;2022-12-16T13:32:32;99425.34;;;-3.65;100.00
64292;BME280;50628;51.008;13.658;2022-12-16T13:37:53;99433.16;;;-3.72;100.00
64292;BME280;50628;51.008;13.658;2022-12-16T13:43:43;99435.38;;;-3.59;100.00
64292;BME280;50628;51.008;13.658;2022-12-16T13:49:39;99444.59;;;-3.26;100.00
64292;BME280;50628;51.008;13.658;2022-12-16T13:55:16;99450.88;;;-3.37;100.00
64292;BME280;50628;51.008;13.658;2022-12-16T14:00:40;99458.94;;;-3.23;100.00
64292;BME280;50628;51.008;13.658;2022-12-16T14:06:00;99479.84;;;-3.43;100.00
64292;BME280;50628;51.008;13.658;2022-12-16T14:11:40;99489.19;;;-3.75;100.00
64292;BME280;50628;51.008;13.658;2022-12-16T14:17:21;99506.38;;;-3.83;100.00
64292;BME280;50628;51.008;13.658;2022-12-16T14:22:50;99506.72;;;-3.64;100.00
64292;BME280;50628;51.008;13.658;2022-12-16T14:28:20;99517.69;;;-3.62;100.00
64292;BME280;50628;51.008;13.658;2022-12-16T14:33:42;99512.72;;;-4.01;100.00
64292;BME280;50628;51.008;13.658;2022-12-16T14:39:02;99525.22;;;-3.92;100.00
64292;BME280;50628;51.008;13.658;2022-12-16T14:44:23;99544.31;;;-4.11;100.00
64292;BME280;50628;51.008;13.658;2022-12-16T14:49:50;99548.44;;;-4.05;100.00
64292;BME280;50628;51.008;13.658;2022-12-16T14:55:14;99543.19;;;-3.98;100.00
64292;BME280;50628;51.008;13.658;2022-12-16T15:00:34;99560.66;;;-4.21;100.00
64292;BME280;50628;51.008;13.658;2022-12-16T15:05:56;99560.91;;;-3.95;100.00
64292;BME280;50628;51.008;13.658;2022-12-16T15:11:18;99563.25;;;-3.87;100.00
64292;BME280;50628;51.008;13.658;2022-12-16T15:16:41;99572.03;;;-3.66;100.00
64292;BME280;50628;51.008;13.658;2022-12-16T15:22:03;99579.41;;;-3.89;100.00
64292;BME280;50628;51.008;13.658;2022-12-16T15:27:24;99586.88;;;-4.19;100.00
64292;BME280;50628;51.008;13.658;2022-12-16T15:32:51;99598.50;;;-4.07;100.00
64292;BME280;50628;51.008;13.658;2022-12-16T15:38:17;99614.16;;;-4.26;100.00
64292;BME280;50628;51.008;13.658;2022-12-16T15:43:51;99618.25;;;-4.20;100.00
64292;BME280;50628;51.008;13.658;2022-12-16T15:49:18;99623.56;;;-4.31;100.00
64292;BME280;50628;51.008;13.658;2022-12-16T15:54:52;99628.78;;;-4.37;100.00
64292;BME280;50628;51.008;13.658;2022-12-16T16:00:19;99638.41;;;-4.51;100.00
64292;BME280;50628;51.008;13.658;2022-12-16T16:05:39;99653.88;;;-4.64;100.00
64292;BME280;50628;51.008;13.658;2022-12-16T16:11:00;99655.91;;;-4.80;100.00
64292;BME280;50628;51.008;13.658;2022-12-16T16:16:19;99657.66;;;-4.83;100.00
64292;BME280;50628;51.008;13.658;2022-12-16T16:21:38;99662.63;;;-4.77;100.00
64292;BME280;50628;51.008;13.658;2022-12-16T16:27:00;99662.84;;;-4.89;100.00
64292;BME280;50628;51.008;13.658;2022-12-16T16:32:25;99668.78;;;-4.45;100.00
64292;BME280;50628;51.008;13.658;2022-12-16T16:37:45;99664.38;;;-4.39;100.00
64292;BME280;50628;51.008;13.658;2022-12-16T16:43:06;99683.34;;;-4.53;100.00
64292;BME280;50628;51.008;13.658;2022-12-16T16:48:27;99694.41;;;-4.56;100.00
64292;BME280;50628;51.008;13.658;2022-12-16T16:53:47;99686.00;;;-4.19;100.00
64292;BME280;50628;51.008;13.658;2022-12-16T16:59:09;99694.19;;;-4.06;100.00
64292;BME280;50628;51.008;13.658;2022-12-16T17:04:30;99692.81;;;-4.21;100.00
64292;BME280;50628;51.008;13.658;2022-12-16T17:09:49;99700.34;;;-4.17;100.00
64292;BME280;50628;51.008;13.658;2022-12-16T17:15:15;99717.69;;;-4.36;100.00
64292;BME280;50628;51.008;13.658;2022-12-16T17:20:34;99721.97;;;-4.39;100.00
64292;BME280;50628;51.008;13.658;2022-12-16T17:25:54;99725.69;;;-4.14;100.00
64292;BME280;50628;51.008;13.658;2022-12-16T17:31:14;99738.81;;;-4.33;100.00
64292;BME280;50628;51.008;13.658;2022-12-16T17:36:33;99754.09;;;-4.35;100.00
64292;BME280;50628;51.008;13.658;2022-12-16T17:41:53;99754.28;;;-4.02;100.00
64292;BME280;50628;51.008;13.658;2022-12-16T17:47:14;99751.34;;;-3.84;100.00
64292;BME280;50628;51.008;13.658;2022-12-16T17:52:34;99753.19;;;-3.90;100.00
64292;BME280;50628;51.008;13.658;2022-12-16T17:57:53;99765.38;;;-4.06;100.00
64292;BME280;50628;51.008;13.658;2022-12-16T18:03:13;99781.28;;;-3.97;100.00
64292;BME280;50628;51.008;13.658;2022-12-16T18:08:32;99782.91;;;-3.93;100.00
64292;BME280;50628;51.008;13.658;2022-12-16T18:13:52;99783.56;;;-3.84;100.00
64292;BME280;50628;51.008;13.658;2022-12-16T18:19:14;99791.19;;;-3.84;100.00
64292;BME280;50628;51.008;13.658;2022-12-16T18:24:33;99793.88;;;-3.90;100.00
64292;BME280;50628;51.008;13.658;2022-12-16T18:29:53;99787.25;;;-3.99;100.00
64292;BME280;50628;51.008;13.658;2022-12-16T18:35:14;99797.94;;;-3.82;100.00
64292;BME280;50628;51.008;13.658;2022-12-16T18:40:33;99803.91;;;-3.84;100.00
64292;BME280;50628;51.008;13.658;2022-12-16T18:45:53;99800.41;;;-3.79;100.00
64292;BME280;50628;51.008;13.658;2022-12-16T18:51:16;99810.78;;;-3.89;100.00
64292;BME280;50628;51.008;13.658;2022-12-16T18:56:35;99804.31;;;-3.64;100.00
64292;BME280;50628;51.008;13.658;2022-12-16T19:01:55;99810.50;;;-3.76;100.00
64292;BME280;50628;51.008;13.658;2022-12-16T19:07:16;99820.94;;;-3.88;100.00
64292;BME280;50628;51.008;13.658;2022-12-16T19:12:35;99812.34;;;-3.82;100.00
64292;BME280;50628;51.008;13.658;2022-12-16T19:17:58;99823.38;;;-3.83;100.00
64292;BME280;50628;51.008;13.658;2022-12-16T19:23:19;99824.25;;;-3.84;100.00
64292;BME280;50628;51.008;13.658;2022-12-16T19:28:39;99824.50;;;-3.55;100.00
64292;BME280;50628;51.008;13.658;2022-12-16T19:34:03;99829.66;;;-3.58;100.00
64292;BME280;50628;51.008;13.658;2022-12-16T19:39:25;99846.84;;;-3.71;100.00
64292;BME280;50628;51.008;13.658;2022-12-16T19:44:44;99834.44;;;-3.45;100.00
64292;BME280;50628;51.008;13.658;2022-12-16T19:50:04;99846.44;;;-3.51;100.00
64292;BME280;50628;51.008;13.658;2022-12-16T19:55:25;99855.03;;;-3.55;100.00
64292;BME280;50628;51.008;13.658;2022-12-16T20:00:44;99866.28;;;-3.68;100.00
64292;BME280;50628;51.008;13.658;2022-12-16T20:06:05;99878.09;;;-3.64;100.00
64292;BME280;50628;51.008;13.658;2022-12-16T20:11:27;99883.69;;;-3.48;100.00
64292;BME280;50628;51.008;13.658;2022-12-16T20:16:46;99894.28;;;-3.68;100.00
64292;BME280;50628;51.008;13.658;2022-12-16T20:22:06;99899.75;;;-3.44;100.00
64292;BME280;50628;51.008;13.658;2022-12-16T20:27:27;99911.03;;;-4.01;100.00
64292;BME280;50628;51.008;13.658;2022-12-16T20:32:46;99913.78;;;-4.12;100.00
64292;BME280;50628;51.008;13.658;2022-12-16T20:38:06;99926.56;;;-4.17;100.00
64292;BME280;50628;51.008;13.658;2022-12-16T20:43:27;99924.69;;;-3.62;100.00
64292;BME280;50628;51.008;13.658;2022-12-16T20:48:46;99926.28;;;-4.01;100.00
64292;BME280;50628;51.008;13.658;2022-12-16T20:54:11;99940.13;;;-4.18;100.00
64292;BME280;50628;51.008;13.658;2022-12-16T20:59:32;99938.84;;;-3.92;100.00
64292;BME280;50628;51.008;13.658;2022-12-16T21:04:51;99946.91;;;-3.70;100.00
64292;BME280;50628;51.008;13.658;2022-12-16T21:10:15;99944.38;;;-3.72;100.00
64292;BME280;50628;51.008;13.658;2022-12-16T21:15:37;99956.94;;;-3.62;100.00
64292;BME280;50628;51.008;13.658;2022-12-16T21:20:57;99964.53;;;-3.61;100.00
64292;BME280;50628;51.008;13.658;2022-12-16T21:26:16;99963.59;;;-3.57;100.00
64292;BME280;50628;51.008;13.658;2022-12-16T21:31:36;99962.78;;;-3.57;100.00
64292;BME280;50628;51.008;13.658;2022-12-16T21:36:55;99978.25;;;-3.70;100.00
64292;BME280;50628;51.008;13.658;2022-12-16T21:42:15;99990.22;;;-3.75;100.00
64292;BME280;50628;51.008;13.658;2022-12-16T21:47:35;99995.19;;;-3.67;100.00
64292;BME280;50628;51.008;13.658;2022-12-16T21:52:54;99988.34;;;-3.65;100.00
64292;BME280;50628;51.008;13.658;2022-12-16T21:58:13;100011.41;;;-3.74;100.00
64292;BME280;50628;51.008;13.658;2022-12-16T22:03:35;100017.38;;;-3.77;100.00
64292;BME280;50628;51.008;13.658;2022-12-16T22:08:54;100031.53;;;-3.62;100.00
64292;BME280;50628;51.008;13.658;2022-12-16T22:14:13;100029.03;;;-3.63;100.00
64292;BME280;50628;51.008;13.658;2022-12-16T22:19:34;100022.94;;;-3.55;100.00
64292;BME280;50628;51.008;13.658;2022-12-16T22:24:53;100025.91;;;-3.78;100.00
64292;BME280;50628;51.008;13.658;2022-12-16T22:30:12;100032.44;;;-3.66;100.00
64292;BME280;50628;51.008;13.658;2022-12-16T22:35:33;100033.19;;;-3.59;100.00
64292;BME280;50628;51.008;13.658;2022-12-16T22:40:53;100045.91;;;-3.58;100.00
64292;BME280;50628;51.008;13.658;2022-12-16T22:46:13;100044.50;;;-3.29;100.00
64292;BME280;50628;51.008;13.658;2022-12-16T22:51:34;100051.56;;;-3.43;100.00
64292;BME280;50628;51.008;13.658;2022-12-16T22:56:53;100046.66;;;-3.53;100.00
64292;BME280;50628;51.008;13.658;2022-12-16T23:02:13;100061.66;;;-3.39;100.00
64292;BME280;50628;51.008;13.658;2022-12-16T23:07:36;100065.84;;;-3.36;100.00
64292;BME280;50628;51.008;13.658;2022-12-16T23:12:55;100065.38;;;-3.55;100.00
64292;BME280;50628;51.008;13.658;2022-12-16T23:18:14;100070.31;;;-3.49;100.00
64292;BME280;50628;51.008;13.658;2022-12-16T23:23:35;100065.44;;;-3.60;100.00
64292;BME280;50628;51.008;13.658;2022-12-16T23:28:55;100069.41;;;-3.95;100.00
64292;BME280;50628;51.008;13.658;2022-12-16T23:34:14;100070.78;;;-3.75;100.00
64292;BME280;50628;51.008;13.658;2022-12-16T23:39:34;100075.34;;;-3.46;100.00
64292;BME280;50628;51.008;13.658;2022-12-16T23:44:53;100071.91;;;-3.42;100.00
64292;BME280;50628;51.008;13.658;2022-12-16T23:50:13;100090.47;;;-3.37;100.00
64292;BME280;50628;51.008;13.658;2022-12-16T23:55:33;100092.13;;;-3.36;100.00
